createdAt,value
2024-02-07T00:00:17.271Z,94279.12
2024-02-07T00:04:25.231Z,94276.80
2024-02-07T00:08:11.228Z,94272.65
2024-02-07T00:12:00.593Z,94274.60
2024-02-07T00:15:51.091Z,94270.29
2024-02-07T00:19:39.034Z,94270.20
2024-02-07T00:23:07.569Z,94274.77
2024-02-07T00:26:50.141Z,94278.52
2024-02-07T00:30:40.381Z,94269.71
2024-02-07T00:34:28.778Z,94268.63
2024-02-07T00:38:16.535Z,94273.44
2024-02-07T00:41:59.832Z,94264.56
2024-02-07T00:45:41.528Z,94266.43
2024-02-07T00:49:29.404Z,94260.65
2024-02-07T00:53:17.268Z,94249.93
2024-02-07T00:57:05.136Z,94246.50
2024-02-07T01:00:43.007Z,94241.83
2024-02-07T01:04:30.887Z,94242.64
2024-02-07T01:08:11.152Z,94244.80
2024-02-07T01:11:51.478Z,94237.91
2024-02-07T01:15:39.258Z,94235.15
2024-02-07T01:19:27.309Z,94234.77
2024-02-07T01:23:15.079Z,94228.77
2024-02-07T01:27:02.696Z,94229.39
2024-02-07T01:30:50.612Z,94228.89
2024-02-07T01:34:38.449Z,94230.33
2024-02-07T01:38:26.476Z,94223.72
2024-02-07T01:42:20.196Z,94220.05
2024-02-07T01:46:10.856Z,94213.83
2024-02-07T01:49:58.625Z,94213.21
2024-02-07T01:53:46.317Z,94211.28
2024-02-07T01:57:27.134Z,94206.75
2024-02-07T02:01:14.977Z,94203.02
2024-02-07T02:05:03.157Z,94203.92
2024-02-07T02:08:50.983Z,94197.20
2024-02-07T02:12:38.680Z,94204.67
2024-02-07T02:16:26.816Z,94195.73
2024-02-07T02:19:49.457Z,94197.70
2024-02-07T02:23:53.957Z,94200.98
2024-02-07T02:27:44.320Z,94202.20
2024-02-07T02:31:27.213Z,94203.30
2024-02-07T02:35:14.879Z,94197.20
2024-02-07T02:39:01.325Z,94199.75
2024-02-07T02:42:30.264Z,94200.61
2024-02-07T02:46:09.192Z,94199.36
2024-02-07T02:49:56.905Z,94200.08
2024-02-07T02:53:44.592Z,94198.27
2024-02-07T02:57:10.891Z,94201.61
2024-02-07T03:00:58.715Z,94194.29
2024-02-07T03:04:47.490Z,94193.32
2024-02-07T03:08:38.310Z,94196.73
2024-02-07T03:12:25.926Z,94191.84
2024-02-07T03:16:06.113Z,94194.20
2024-02-07T03:19:52.307Z,94189.97
2024-02-07T03:23:40.449Z,94182.48
2024-02-07T03:27:28.176Z,94177.70
2024-02-07T03:31:15.898Z,94173.66
2024-02-07T03:35:03.662Z,94169.32
2024-02-07T03:38:51.536Z,94167.05
2024-02-07T03:42:39.120Z,94164.77
2024-02-07T03:46:26.729Z,94163.15
2024-02-07T03:50:14.406Z,94156.27
2024-02-07T03:54:02.151Z,94150.42
2024-02-07T03:57:49.669Z,94143.84
2024-02-07T04:01:37.466Z,94146.62
2024-02-07T04:05:18.413Z,94143.44
2024-02-07T04:08:26.581Z,94146.20
2024-02-07T04:11:54.106Z,94146.14
2024-02-07T04:15:40.365Z,94138.59
2024-02-07T04:19:26.612Z,94135.00
2024-02-07T04:22:55.409Z,94126.41
2024-02-07T04:26:22.981Z,94129.02
2024-02-07T04:29:47.080Z,94129.28
2024-02-07T04:33:32.926Z,94122.16
2024-02-07T04:37:19.068Z,94120.53
2024-02-07T04:41:05.428Z,94136.52
2024-02-07T04:44:51.665Z,94135.35
2024-02-07T04:48:37.718Z,94133.81
2024-02-07T04:52:03.109Z,94134.92
2024-02-07T04:55:49.341Z,94134.39
2024-02-07T04:59:35.083Z,94133.63
2024-02-07T05:03:01.315Z,94138.15
2024-02-07T05:06:27.068Z,94140.16
2024-02-07T05:10:13.325Z,94142.61
2024-02-07T05:13:59.658Z,94136.55
2024-02-07T05:17:26.628Z,94128.70
2024-02-07T05:20:19.029Z,94132.05
2024-02-07T05:24:08.221Z,94134.89
2024-02-07T05:27:34.274Z,94130.55
2024-02-07T05:31:21.909Z,94134.86
2024-02-07T05:35:09.716Z,94136.19
2024-02-07T05:38:58.557Z,94139.24
2024-02-07T05:42:46.401Z,94144.35
2024-02-07T05:46:26.904Z,94148.92
2024-02-07T05:49:48.098Z,94149.83
2024-02-07T05:54:04.757Z,94153.80
2024-02-07T05:57:26.358Z,94155.29
2024-02-07T06:05:37.924Z,94155.20
2024-02-07T06:09:10.549Z,94163.42
2024-02-07T06:12:37.642Z,94164.66
2024-02-07T06:16:03.838Z,94166.59
2024-02-07T06:19:36.573Z,94168.79
2024-02-07T06:22:56.537Z,94168.14
2024-02-07T06:27:31.603Z,94164.62
2024-02-07T06:30:46.134Z,94150.13
2024-02-07T06:34:17.935Z,94150.77
2024-02-07T06:37:46.852Z,94148.27
2024-02-07T06:41:15.343Z,94133.00
2024-02-07T06:44:03.139Z,94141.74
2024-02-07T06:47:07.741Z,94137.09
2024-02-07T06:50:27.385Z,94137.17
2024-02-07T06:54:06.922Z,94138.54
2024-02-07T06:57:23.268Z,94133.66
2024-02-07T07:01:20.782Z,94135.44
2024-02-07T07:04:54.810Z,94138.61
2024-02-07T07:09:30.010Z,94140.82
2024-02-07T07:13:39.984Z,94136.73
2024-02-07T07:27:07.932Z,94135.98
2024-02-07T07:30:46.425Z,94140.49
2024-02-07T07:35:54.578Z,94135.04
2024-02-07T07:40:25.289Z,94134.86
2024-02-07T07:49:10.426Z,94128.08
2024-02-07T07:52:32.526Z,94120.73
2024-02-07T08:18:55.499Z,94097.16
2024-02-07T08:23:03.328Z,94100.54
2024-02-07T08:26:26.305Z,94101.67
2024-02-07T08:29:46.317Z,94101.91
2024-02-07T08:32:34.559Z,94098.60
2024-02-07T08:35:38.357Z,94096.80
2024-02-07T08:38:28.297Z,94103.67
2024-02-07T08:40:59.024Z,94099.33
2024-02-07T08:43:54.133Z,94104.29
2024-02-07T08:46:29.140Z,94102.39
2024-02-07T08:49:46.668Z,94100.25
2024-02-07T08:53:01.916Z,94108.00
2024-02-07T08:56:24.001Z,94096.41
2024-02-07T09:00:02.427Z,94099.75
2024-02-07T09:03:42.988Z,94103.81
2024-02-07T09:11:17.381Z,94112.54
2024-02-07T09:14:26.900Z,94110.11
2024-02-07T09:29:39.247Z,94090.08
2024-02-07T09:32:52.609Z,94098.46
2024-02-07T09:36:15.912Z,94090.89
2024-02-07T09:39:18.375Z,94090.38
2024-02-07T09:42:18.863Z,94080.85
2024-02-07T09:45:20.480Z,94081.23
2024-02-07T09:48:34.662Z,94084.81
2024-02-07T09:51:45.528Z,94086.41
2024-02-07T09:56:06.859Z,94085.15
2024-02-07T10:00:09.882Z,94087.88
2024-02-07T10:35:40.488Z,94033.80
2024-02-07T10:39:23.266Z,94032.84
2024-02-07T10:42:48.290Z,94036.90
2024-02-07T10:46:02.361Z,94026.89
2024-02-07T10:49:17.766Z,94028.20
2024-02-07T10:52:56.238Z,94031.48
2024-02-07T10:55:47.021Z,94027.00
2024-02-07T10:58:36.524Z,94024.91
2024-02-07T11:01:54.190Z,94022.73
2024-02-07T11:05:40.367Z,94018.08
2024-02-07T11:09:16.308Z,94014.70
2024-02-07T11:13:15.717Z,94016.80
2024-02-07T11:17:29.206Z,94013.02
2024-02-07T11:29:10.432Z,94004.59
2024-02-07T11:31:41.996Z,94002.37
2024-02-07T11:34:52.882Z,94008.86
2024-02-07T11:38:43.629Z,94005.80
2024-02-07T11:42:24.897Z,94003.03
2024-02-07T11:46:08.792Z,94000.30
2024-02-07T11:49:52.859Z,93993.19
2024-02-07T11:53:36.821Z,93993.41
2024-02-07T11:57:22.063Z,93992.05
2024-02-07T12:00:50.068Z,93984.08
2024-02-07T12:04:29.537Z,93981.31
2024-02-07T12:08:16.088Z,93978.08
2024-02-07T12:12:14.350Z,93973.90
2024-02-07T12:16:34.421Z,93970.05
2024-02-07T12:33:03.072Z,93946.77
2024-02-07T12:40:33.255Z,93941.23
2024-02-07T12:43:25.506Z,93943.23
2024-02-07T12:49:31.953Z,93944.81
2024-02-07T12:50:55.601Z,93944.48
2024-02-07T12:54:16.726Z,93930.41
2024-02-07T12:57:43.759Z,93919.83
2024-02-07T13:01:30.399Z,93919.49
2024-02-07T13:05:01.954Z,93917.80
2024-02-07T13:08:49.778Z,93922.30
2024-02-07T13:12:58.157Z,93914.25
2024-02-07T13:16:46.009Z,93912.69
2024-02-07T13:20:33.923Z,93912.83
2024-02-07T13:24:21.806Z,93911.82
2024-02-07T13:28:09.585Z,93910.31
2024-02-07T13:31:39.971Z,93907.19
2024-02-07T13:35:27.725Z,93907.23
2024-02-07T13:38:49.756Z,93907.27
2024-02-07T13:42:37.550Z,93905.50
2024-02-07T13:46:25.411Z,93911.83
2024-02-07T13:50:02.298Z,93905.52
2024-02-07T13:53:50.224Z,93907.27
2024-02-07T13:57:30.649Z,93903.29
2024-02-07T14:00:48.696Z,93897.16
2024-02-07T14:04:08.180Z,93896.08
2024-02-07T14:07:39.839Z,93892.83
2024-02-07T14:11:45.716Z,93889.13
2024-02-07T14:15:25.744Z,93882.58
2024-02-07T14:19:19.557Z,93876.57
2024-02-07T14:23:07.829Z,93874.30
2024-02-07T14:26:55.730Z,93870.70
2024-02-07T14:30:24.953Z,93875.77
2024-02-07T14:34:16.522Z,93871.98
2024-02-07T14:38:11.398Z,93861.80
2024-02-07T14:41:51.938Z,93858.86
2024-02-07T14:45:40.048Z,93856.48
2024-02-07T14:49:05.833Z,93853.46
2024-02-07T14:52:37.970Z,93855.55
2024-02-07T14:56:26.660Z,93850.75
2024-02-07T15:00:14.419Z,93854.14
2024-02-07T15:04:02.233Z,93854.14
2024-02-07T15:07:50.002Z,93855.30
2024-02-07T15:11:37.773Z,93846.86
2024-02-07T15:15:25.489Z,93848.69
2024-02-07T15:19:13.191Z,93844.92
2024-02-07T15:23:00.835Z,93850.54
2024-02-07T15:26:48.448Z,93845.90
2024-02-07T15:30:36.188Z,93846.53
2024-02-07T15:34:13.680Z,93841.11
2024-02-07T15:38:01.360Z,93840.38
2024-02-07T15:41:49.420Z,93838.73
2024-02-07T15:45:38.475Z,93839.98
2024-02-07T15:49:27.419Z,93845.34
2024-02-07T15:53:14.992Z,93845.93
2024-02-07T15:57:02.575Z,93846.25
2024-02-07T16:00:40.617Z,93845.90
2024-02-07T16:04:28.454Z,93847.92
2024-02-07T16:08:16.234Z,93847.73
2024-02-07T16:12:03.912Z,93855.23
2024-02-07T16:15:51.520Z,93859.36
2024-02-07T16:19:39.388Z,93863.80
2024-02-07T16:23:27.040Z,93864.56
2024-02-07T16:27:14.618Z,93864.70
2024-02-07T16:30:45.323Z,93869.67
2024-02-07T16:33:55.904Z,93861.19
2024-02-07T16:37:23.692Z,93860.37
2024-02-07T16:41:10.174Z,93852.35
2024-02-07T16:44:58.155Z,93858.11
2024-02-07T16:48:46.221Z,93864.13
2024-02-07T16:52:34.067Z,93865.03
2024-02-07T16:56:21.721Z,93859.39
2024-02-07T17:00:09.514Z,93859.03
2024-02-07T17:03:57.281Z,93863.66
2024-02-07T17:07:45.202Z,93866.45
2024-02-07T17:11:32.838Z,93863.09
2024-02-07T17:15:20.929Z,93863.27
2024-02-07T17:19:08.957Z,93858.70
2024-02-07T17:22:56.720Z,93855.20
2024-02-07T17:26:44.511Z,93854.38
2024-02-07T17:30:36.614Z,93856.79
2024-02-07T17:34:25.574Z,93858.02
2024-02-07T17:38:13.286Z,93856.98
2024-02-07T17:42:01.108Z,93848.27
2024-02-07T17:45:49.104Z,93847.94
2024-02-07T17:49:36.976Z,93848.59
2024-02-07T17:53:25.780Z,93850.95
2024-02-07T17:57:13.516Z,93834.59
2024-02-07T18:01:01.409Z,93840.52
2024-02-07T18:04:49.236Z,93838.02
2024-02-07T18:08:37.021Z,93842.35
2024-02-07T18:12:24.842Z,93834.27
2024-02-07T18:16:12.541Z,93846.69
2024-02-07T18:20:03.559Z,93846.59
2024-02-07T18:23:52.500Z,93852.29
2024-02-07T18:27:01.324Z,93853.90
2024-02-07T18:30:28.865Z,93852.57
2024-02-07T18:34:16.586Z,93846.75
2024-02-07T18:38:04.494Z,93848.23
2024-02-07T18:41:52.176Z,93857.03
2024-02-07T18:45:39.975Z,93858.55
2024-02-07T18:49:18.074Z,93862.19
2024-02-07T18:53:05.968Z,93856.77
2024-02-07T18:56:54.180Z,93857.67
2024-02-07T19:00:42.627Z,93852.50
2024-02-07T19:04:30.618Z,93862.85
2024-02-07T19:08:18.533Z,93864.64
2024-02-07T19:12:06.380Z,93861.35
2024-02-07T19:15:53.994Z,93862.78
2024-02-07T19:19:41.874Z,93861.02
2024-02-07T19:23:29.850Z,93865.58
2024-02-07T19:27:17.652Z,93871.73
2024-02-07T19:31:05.445Z,93870.83
2024-02-07T19:34:53.327Z,93874.41
2024-02-07T19:38:41.000Z,93870.86
2024-02-07T19:42:28.848Z,93877.25
2024-02-07T19:46:16.365Z,93880.56
2024-02-07T19:50:03.853Z,93871.66
2024-02-07T19:53:51.683Z,93875.36
2024-02-07T19:57:39.300Z,93876.52
2024-02-07T20:00:53.393Z,93875.11
2024-02-07T20:04:41.338Z,93872.23
2024-02-07T20:08:22.039Z,93874.11
2024-02-07T20:12:09.726Z,93867.80
2024-02-07T20:15:57.422Z,93873.91
2024-02-07T20:19:45.075Z,93871.14
2024-02-07T20:23:32.742Z,93867.41
2024-02-07T20:27:20.461Z,93873.10
2024-02-07T20:31:08.254Z,93868.45
2024-02-07T20:34:15.861Z,93866.14
2024-02-07T20:38:03.686Z,93856.17
2024-02-07T20:41:51.556Z,93862.02
2024-02-07T20:45:39.163Z,93858.42
2024-02-07T20:49:27.117Z,93855.02
2024-02-07T20:53:14.856Z,93848.65
2024-02-07T20:57:02.661Z,93857.72
2024-02-07T21:00:50.723Z,93856.41
2024-02-07T21:04:38.688Z,93854.74
2024-02-07T21:08:26.571Z,93841.23
2024-02-07T21:12:14.473Z,93845.64
2024-02-07T21:16:02.127Z,93850.45
2024-02-07T21:19:49.845Z,93841.92
2024-02-07T21:23:37.606Z,93843.13
2024-02-07T21:27:18.236Z,93837.73
2024-02-07T21:30:58.734Z,93836.09
2024-02-07T21:34:36.565Z,93832.38
2024-02-07T21:38:24.524Z,93824.20
2024-02-07T21:42:01.680Z,93816.70
2024-02-07T21:45:49.461Z,93816.89
2024-02-07T21:49:37.268Z,93812.36
2024-02-07T21:53:26.126Z,93813.91
2024-02-07T21:57:13.698Z,93813.39
2024-02-07T22:01:01.608Z,93811.58
2024-02-07T22:04:49.610Z,93812.20
2024-02-07T22:08:37.666Z,93820.20
2024-02-07T22:12:25.560Z,93815.95
2024-02-07T22:16:13.589Z,93817.73
2024-02-07T22:20:01.343Z,93814.45
2024-02-07T22:23:49.440Z,93815.31
2024-02-07T22:27:37.266Z,93821.27
2024-02-07T22:31:04.900Z,93822.85
2024-02-07T22:34:52.838Z,93825.16
2024-02-07T22:38:33.184Z,93821.46
2024-02-07T22:42:20.869Z,93822.19
2024-02-07T22:46:08.894Z,93825.17
2024-02-07T22:49:56.597Z,93828.37
2024-02-07T22:53:44.427Z,93824.70
2024-02-07T22:57:32.412Z,93825.52
2024-02-07T23:01:20.130Z,93828.99
2024-02-07T23:04:50.164Z,93830.88
2024-02-07T23:08:37.799Z,93830.80
2024-02-07T23:12:15.233Z,93829.98
2024-02-07T23:15:50.352Z,93827.67
2024-02-07T23:19:38.097Z,93826.07
2024-02-07T23:23:25.777Z,93819.50
2024-02-07T23:27:13.413Z,93823.75
2024-02-07T23:31:01.030Z,93821.18
2024-02-07T23:34:48.694Z,93820.73
2024-02-07T23:38:36.360Z,93823.09
2024-02-07T23:42:24.066Z,93821.49
2024-02-07T23:46:11.787Z,93820.77
2024-02-07T23:49:48.071Z,93831.09
2024-02-07T23:53:35.723Z,93832.39
2024-02-07T23:57:16.053Z,93829.76
